Time;durP1;ratioP1;P1;durP2;ratioP2;P2;SDS_P1;SDS_P2;PMS_P1;PMS_P2;Temp;Humidity;BMP_temperature;BMP_pressure;BME280_temperature;BME280_humidity;BME280_pressure;Samples;Min_cycle;Max_cycle;Signal;HPM_P1;HPM_P2
2021/05/21 00:01:27;;;;;;;4.07;0.98;;;;;;;;;;5010018;28;20053;-80
2021/05/21 00:03:52;;;;;;;3.53;1.15;;;;;;;;;;5011256;28;20052;-79
2021/05/21 00:06:18;;;;;;;3.33;0.90;;;;;;;;;;5011100;28;20044;-79
2021/05/21 00:08:43;;;;;;;2.25;0.93;;;;;;;;;;5010968;28;20037;-79
2021/05/21 00:11:08;;;;;;;14.18;1.45;;;;;;;;;;5010944;28;20029;-79
2021/05/21 00:13:33;;;;;;;5.97;0.85;;;;;;;;;;5011273;28;20104;-79
2021/05/21 00:15:58;;;;;;;11.05;1.10;;;;;;;;;;5011103;28;20026;-79
2021/05/21 00:18:23;;;;;;;2.65;0.90;;;;;;;;;;5010881;28;20100;-79
2021/05/21 00:20:49;;;;;;;5.70;0.98;;;;;;;;;;5009164;28;20026;-79
2021/05/21 00:23:16;;;;;;;3.38;0.82;;;;;;;;;;5009320;28;20122;-79
2021/05/21 00:25:41;;;;;;;3.65;0.90;;;;;;;;;;5012222;28;20429;-80
2021/05/21 00:28:06;;;;;;;3.90;0.90;;;;;;;;;;5010697;28;20046;-79
2021/05/21 00:30:31;;;;;;;1.63;0.80;;;;;;;;;;5012188;28;20018;-79
2021/05/21 00:32:56;;;;;;;5.15;0.95;;;;;;;;;;5010678;28;20381;-79
2021/05/21 00:35:22;;;;;;;5.07;1.10;;;;;;;;;;5010526;28;20674;-79
2021/05/21 00:37:47;;;;;;;4.13;0.80;;;;;;;;;;5010800;28;20010;-79
2021/05/21 00:40:12;;;;;;;6.70;1.48;;;;;;;;;;5010852;28;20010;-80
2021/05/21 00:42:38;;;;;;;3.40;0.98;;;;;;;;;;5025672;28;20367;-79
2021/05/21 00:45:03;;;;;;;4.82;0.85;;;;;;;;;;5010762;28;20026;-79
2021/05/21 00:47:29;;;;;;;4.97;0.90;;;;;;;;;;5010562;28;20022;-79
2021/05/21 00:49:54;;;;;;;2.53;0.80;;;;;;;;;;5010566;28;20025;-79
2021/05/21 00:52:21;;;;;;;6.05;1.05;;;;;;;;;;5010567;28;20021;-79
2021/05/21 00:54:46;;;;;;;7.70;1.25;;;;;;;;;;5010544;28;20022;-80
2021/05/21 00:57:11;;;;;;;2.85;0.90;;;;;;;;;;5010463;28;20022;-79
2021/05/21 00:59:37;;;;;;;2.20;0.80;;;;;;;;;;5009872;28;20059;-79
2021/05/21 01:02:02;;;;;;;3.45;0.88;;;;;;;;;;5012246;28;20018;-79
2021/05/21 01:04:28;;;;;;;2.75;0.52;;;;;;;;;;5012490;28;20040;-79
2021/05/21 01:06:53;;;;;;;2.72;0.93;;;;;;;;;;5010517;28;20022;-80
2021/05/21 01:09:18;;;;;;;3.47;0.90;;;;;;;;;;5025276;28;20022;-79
2021/05/21 01:11:43;;;;;;;2.45;0.70;;;;;;;;;;5009144;28;20061;-79
2021/05/21 01:14:08;;;;;;;2.58;0.60;;;;;;;;;;5009867;28;20039;-79
2021/05/21 01:16:33;;;;;;;7.05;0.90;;;;;;;;;;5008963;28;20373;-80
2021/05/21 01:19:03;;;;;;;4.45;0.90;;;;;;;;;;5010301;28;20025;-80
2021/05/21 01:21:30;;;;;;;4.40;0.60;;;;;;;;;;5025359;28;20022;-79
2021/05/21 01:23:55;;;;;;;1.65;0.70;;;;;;;;;;5010283;28;20097;-80
2021/05/21 01:26:20;;;;;;;4.47;1.10;;;;;;;;;;5009871;28;20102;-80
2021/05/21 01:28:46;;;;;;;6.53;0.95;;;;;;;;;;5008914;28;20022;-79
2021/05/21 01:31:11;;;;;;;4.80;0.93;;;;;;;;;;5008758;28;20469;-80
2021/05/21 01:33:36;;;;;;;6.07;0.80;;;;;;;;;;5010099;28;20028;-79
2021/05/21 01:36:01;;;;;;;5.63;1.15;;;;;;;;;;5013385;28;20025;-80
2021/05/21 01:38:27;;;;;;;2.72;0.80;;;;;;;;;;5013405;28;20026;-80
2021/05/21 01:40:53;;;;;;;3.13;0.70;;;;;;;;;;5013465;28;20471;-79
2021/05/21 01:43:19;;;;;;;17.70;1.65;;;;;;;;;;5015823;28;20030;-80
2021/05/21 01:45:44;;;;;;;6.88;1.20;;;;;;;;;;5011844;28;20033;-80
2021/05/21 01:48:11;;;;;;;6.82;0.70;;;;;;;;;;5012953;28;20050;-80
2021/05/21 01:50:36;;;;;;;5.57;0.95;;;;;;;;;;5013350;28;20041;-80
2021/05/21 01:53:01;;;;;;;3.00;0.70;;;;;;;;;;5029254;28;20377;-80
2021/05/21 01:55:27;;;;;;;7.50;1.00;;;;;;;;;;5024651;28;20017;-80
2021/05/21 01:57:52;;;;;;;4.35;0.70;;;;;;;;;;5014513;28;20059;-80
2021/05/21 02:00:17;;;;;;;5.85;0.80;;;;;;;;;;5013080;28;20487;-80
2021/05/21 02:02:42;;;;;;;13.15;0.95;;;;;;;;;;5011898;28;20018;-79
2021/05/21 02:05:08;;;;;;;26.83;1.38;;;;;;;;;;5011338;28;20059;-80
2021/05/21 02:07:33;;;;;;;7.88;1.05;;;;;;;;;;5012793;28;20029;-79
2021/05/21 02:10:00;;;;;;;4.80;0.70;;;;;;;;;;5011659;28;20116;-80
2021/05/21 02:12:26;;;;;;;19.05;1.08;;;;;;;;;;5012957;28;20423;-80
2021/05/21 02:14:52;;;;;;;12.90;1.42;;;;;;;;;;5012829;28;20026;-80
2021/05/21 02:17:17;;;;;;;10.05;1.10;;;;;;;;;;5027761;28;20022;-80
2021/05/21 02:19:42;;;;;;;13.05;1.00;;;;;;;;;;5011575;28;20030;-80
2021/05/21 02:22:08;;;;;;;5.28;1.15;;;;;;;;;;5012537;28;20025;-80
2021/05/21 02:24:33;;;;;;;10.70;0.80;;;;;;;;;;5012639;28;20100;-80
2021/05/21 02:26:59;;;;;;;8.88;0.90;;;;;;;;;;5012649;28;20029;-79
2021/05/21 02:29:24;;;;;;;6.20;0.95;;;;;;;;;;5011350;28;20074;-80
2021/05/21 02:31:49;;;;;;;11.82;1.10;;;;;;;;;;5012607;28;20018;-80
2021/05/21 02:34:14;;;;;;;8.25;1.02;;;;;;;;;;5012356;28;20070;-80
2021/05/21 02:36:39;;;;;;;3.70;0.95;;;;;;;;;;5011313;28;20397;-80
2021/05/21 02:39:05;;;;;;;8.77;1.00;;;;;;;;;;5015465;28;20021;-80
2021/05/21 02:41:30;;;;;;;7.22;0.90;;;;;;;;;;5011915;28;20014;-80
2021/05/21 02:43:55;;;;;;;4.38;1.05;;;;;;;;;;5010405;28;20022;-80
2021/05/21 02:46:21;;;;;;;6.65;1.08;;;;;;;;;;5009835;28;20025;-80
2021/05/21 02:48:46;;;;;;;8.63;1.20;;;;;;;;;;5010005;28;20469;-80
2021/05/21 02:51:11;;;;;;;8.13;1.10;;;;;;;;;;5010883;28;20067;-80
2021/05/21 02:53:36;;;;;;;10.82;1.63;;;;;;;;;;5010779;28;20446;-80
2021/05/21 02:56:02;;;;;;;15.18;1.35;;;;;;;;;;5010586;28;20552;-80
2021/05/21 02:58:27;;;;;;;7.47;1.10;;;;;;;;;;5009157;28;20010;-79
2021/05/21 03:00:52;;;;;;;7.65;1.10;;;;;;;;;;5010556;28;20355;-80
2021/05/21 03:03:17;;;;;;;4.72;0.93;;;;;;;;;;5010499;28;20022;-80
2021/05/21 03:05:42;;;;;;;6.35;1.17;;;;;;;;;;5010615;28;20028;-80
2021/05/21 03:08:09;;;;;;;11.80;1.33;;;;;;;;;;5010386;28;20443;-80
2021/05/21 03:10:34;;;;;;;5.32;1.17;;;;;;;;;;5005933;28;20032;-80
2021/05/21 03:12:59;;;;;;;12.30;1.38;;;;;;;;;;5012262;28;20105;-80
2021/05/21 03:15:26;;;;;;;6.90;1.30;;;;;;;;;;5011688;28;20105;-80
2021/05/21 03:17:51;;;;;;;10.27;1.33;;;;;;;;;;5011992;28;20093;-80
2021/05/21 03:20:17;;;;;;;7.22;1.60;;;;;;;;;;5018081;28;20032;-80
2021/05/21 03:22:42;;;;;;;7.20;1.38;;;;;;;;;;5011778;28;20006;-80
2021/05/21 03:25:08;;;;;;;6.65;1.33;;;;;;;;;;5012019;28;20026;-80
2021/05/21 03:27:33;;;;;;;6.28;1.42;;;;;;;;;;5011907;28;20027;-80
2021/05/21 03:29:59;;;;;;;8.80;1.23;;;;;;;;;;5011427;28;20095;-80
2021/05/21 03:32:24;;;;;;;5.70;1.25;;;;;;;;;;5011536;28;20030;-80
2021/05/21 03:34:50;;;;;;;5.80;1.50;;;;;;;;;;5012966;28;20475;-79
2021/05/21 03:37:15;;;;;;;3.83;1.20;;;;;;;;;;5015314;28;20030;-80
2021/05/21 03:39:41;;;;;;;5.65;1.75;;;;;;;;;;5011389;28;20014;-81
2021/05/21 03:42:06;;;;;;;5.45;1.13;;;;;;;;;;5010198;28;20026;-80
2021/05/21 03:44:32;;;;;;;5.15;1.50;;;;;;;;;;5011269;28;20022;-79
2021/05/21 03:47:00;;;;;;;5.70;1.40;;;;;;;;;;5010331;28;20033;-80
2021/05/21 03:49:26;;;;;;;7.03;1.60;;;;;;;;;;5011475;28;20010;-80
2021/05/21 03:51:52;;;;;;;4.25;1.25;;;;;;;;;;5011398;28;20018;-79
2021/05/21 03:54:17;;;;;;;6.45;1.38;;;;;;;;;;5011118;28;20100;-80
2021/05/21 03:56:42;;;;;;;3.17;1.13;;;;;;;;;;5008918;28;20093;-79
2021/05/21 03:59:07;;;;;;;5.25;1.10;;;;;;;;;;5009236;28;20014;-79
2021/05/21 04:01:33;;;;;;;5.18;1.20;;;;;;;;;;5009431;28;20030;-79
2021/05/21 04:03:58;;;;;;;5.05;0.95;;;;;;;;;;5009605;28;20468;-80
2021/05/21 04:06:23;;;;;;;9.75;1.08;;;;;;;;;;5008919;28;20135;-80
2021/05/21 04:08:48;;;;;;;3.92;1.02;;;;;;;;;;5010259;28;20026;-79
2021/05/21 04:11:14;;;;;;;9.27;1.50;;;;;;;;;;5009640;28;20443;-80
2021/05/21 04:13:40;;;;;;;6.68;1.30;;;;;;;;;;5009918;28;20032;-80
2021/05/21 04:16:05;;;;;;;10.43;1.25;;;;;;;;;;5008640;28;20030;-80
2021/05/21 04:18:30;;;;;;;7.82;1.40;;;;;;;;;;5009442;28;20092;-80
2021/05/21 04:20:56;;;;;;;9.95;1.13;;;;;;;;;;5012243;28;20078;-79
2021/05/21 04:23:21;;;;;;;8.15;1.30;;;;;;;;;;5011066;28;20398;-79
2021/05/21 04:25:48;;;;;;;8.20;1.42;;;;;;;;;;5010860;28;20075;-80
2021/05/21 04:28:15;;;;;;;13.20;1.20;;;;;;;;;;5010927;28;20446;-80
2021/05/21 04:30:40;;;;;;;6.70;1.23;;;;;;;;;;5022195;28;20021;-79
2021/05/21 04:33:05;;;;;;;4.82;1.00;;;;;;;;;;5018402;28;20018;-80
2021/05/21 04:35:30;;;;;;;8.13;1.40;;;;;;;;;;5011577;28;20022;-79
2021/05/21 04:37:55;;;;;;;7.55;1.35;;;;;;;;;;5010874;28;20014;-79
2021/05/21 04:40:20;;;;;;;4.30;1.23;;;;;;;;;;5010800;28;20014;-80
2021/05/21 04:42:46;;;;;;;5.05;1.15;;;;;;;;;;5023114;28;20026;-79
2021/05/21 04:45:11;;;;;;;11.60;1.50;;;;;;;;;;5010630;28;20018;-79
2021/05/21 04:47:37;;;;;;;8.13;1.42;;;;;;;;;;5010453;28;20024;-79
2021/05/21 04:50:02;;;;;;;8.68;1.88;;;;;;;;;;5009406;28;20104;-79
2021/05/21 04:52:27;;;;;;;6.20;1.75;;;;;;;;;;5010697;28;20022;-80
2021/05/21 04:54:53;;;;;;;5.72;1.25;;;;;;;;;;5008911;28;20022;-79
2021/05/21 04:57:18;;;;;;;7.57;1.35;;;;;;;;;;5010575;28;20014;-79
2021/05/21 04:59:43;;;;;;;6.43;1.50;;;;;;;;;;5010163;28;20423;-79
2021/05/21 05:02:08;;;;;;;7.82;1.60;;;;;;;;;;5009308;28;20060;-80
2021/05/21 05:04:33;;;;;;;11.88;1.65;;;;;;;;;;5009156;28;20034;-80
2021/05/21 05:06:58;;;;;;;10.35;1.33;;;;;;;;;;5010489;28;20085;-80
2021/05/21 05:09:24;;;;;;;7.85;1.58;;;;;;;;;;5010511;28;20014;-80
2021/05/21 05:11:49;;;;;;;6.30;1.35;;;;;;;;;;5016134;28;20461;-80
2021/05/21 05:14:14;;;;;;;5.95;1.42;;;;;;;;;;5010166;28;20025;-80
2021/05/21 05:16:40;;;;;;;6.15;1.52;;;;;;;;;;5010391;28;20067;-80
2021/05/21 05:19:06;;;;;;;5.60;1.45;;;;;;;;;;5010112;28;20017;-80
2021/05/21 05:21:32;;;;;;;11.25;1.77;;;;;;;;;;5008879;28;20158;-81
2021/05/21 05:23:57;;;;;;;11.52;1.67;;;;;;;;;;5010230;28;20484;-80
2021/05/21 05:26:23;;;;;;;11.07;1.98;;;;;;;;;;5010197;28;20022;-80
2021/05/21 05:28:49;;;;;;;16.23;2.15;;;;;;;;;;5009377;28;20022;-80
2021/05/21 05:31:14;;;;;;;12.45;2.15;;;;;;;;;;5009443;28;20765;-81
2021/05/21 05:33:43;;;;;;;10.90;1.77;;;;;;;;;;5007931;28;20028;-80
2021/05/21 05:36:08;;;;;;;13.35;2.10;;;;;;;;;;5015349;28;20474;-80
2021/05/21 05:38:33;;;;;;;9.45;1.60;;;;;;;;;;5057493;28;20015;-79
2021/05/21 05:40:59;;;;;;;9.75;1.80;;;;;;;;;;5022552;28;20389;-80
2021/05/21 05:43:24;;;;;;;14.48;2.15;;;;;;;;;;5009844;28;20087;-80
2021/05/21 05:45:49;;;;;;;16.63;2.28;;;;;;;;;;5047693;28;20020;-80
2021/05/21 05:48:18;;;;;;;13.18;1.67;;;;;;;;;;5038252;28;20541;-80
2021/05/21 05:50:43;;;;;;;13.90;1.83;;;;;;;;;;5057384;28;20423;-80
2021/05/21 05:53:08;;;;;;;13.48;2.60;;;;;;;;;;5018078;28;20079;-80
2021/05/21 05:55:33;;;;;;;19.75;2.55;;;;;;;;;;5016382;28;20041;-80
2021/05/21 05:57:58;;;;;;;15.70;2.20;;;;;;;;;;5055742;28;20486;-79
2021/05/21 06:00:24;;;;;;;16.58;2.58;;;;;;;;;;5033748;28;20028;-79
2021/05/21 06:02:49;;;;;;;16.42;2.50;;;;;;;;;;5045475;28;20026;-80
2021/05/21 06:05:14;;;;;;;16.00;2.28;;;;;;;;;;5041981;28;20038;-79
2021/05/21 06:07:40;;;;;;;22.45;2.95;;;;;;;;;;5032645;28;20461;-79
2021/05/21 06:10:05;;;;;;;19.00;2.65;;;;;;;;;;5027495;28;20019;-79
2021/05/21 06:12:30;;;;;;;18.70;2.40;;;;;;;;;;5069138;28;20034;-79
2021/05/21 06:14:56;;;;;;;20.25;2.88;;;;;;;;;;5049713;28;20026;-79
2021/05/21 06:17:21;;;;;;;21.73;2.90;;;;;;;;;;5009444;28;20014;-79
2021/05/21 06:19:47;;;;;;;15.93;2.53;;;;;;;;;;5011006;28;20030;-80
2021/05/21 06:22:12;;;;;;;20.25;2.90;;;;;;;;;;5022988;28;20018;-79
2021/05/21 06:24:39;;;;;;;22.40;3.28;;;;;;;;;;5013049;28;20039;-79
2021/05/21 06:29:48;;;;;;;27.17;3.78;;;;;;;;;;5027702;28;20381;-80
2021/05/21 06:32:14;;;;;;;32.60;3.03;;;;;;;;;;5016485;28;20029;-79
2021/05/21 06:34:39;;;;;;;19.23;3.00;;;;;;;;;;5046158;28;20063;-79
2021/05/21 06:37:04;;;;;;;69.00;3.97;;;;;;;;;;5046022;28;20017;-80
2021/05/21 06:39:29;;;;;;;25.50;4.50;;;;;;;;;;5024654;28;20020;-80
2021/05/21 06:41:54;;;;;;;60.25;3.25;;;;;;;;;;5012958;28;20071;-79
2021/05/21 06:44:20;;;;;;;58.17;4.57;;;;;;;;;;5021419;28;20778;-79
2021/05/21 06:46:45;;;;;;;25.38;3.78;;;;;;;;;;5062976;28;20041;-80
2021/05/21 06:49:14;;;;;;;32.92;3.60;;;;;;;;;;5018580;28;20022;-79
2021/05/21 06:51:40;;;;;;;38.33;3.28;;;;;;;;;;5027471;28;20130;-80
2021/05/21 06:54:06;;;;;;;78.93;5.60;;;;;;;;;;5073102;28;20020;-80
2021/05/21 06:56:31;;;;;;;28.02;3.47;;;;;;;;;;5014655;28;20022;-80
2021/05/21 06:58:56;;;;;;;28.63;2.58;;;;;;;;;;5061987;28;20035;-79
2021/05/21 07:01:22;;;;;;;48.75;3.30;;;;;;;;;;5071549;28;20147;-79
2021/05/21 07:03:47;;;;;;;22.25;3.35;;;;;;;;;;5044956;28;20386;-80
2021/05/21 07:06:12;;;;;;;20.80;3.42;;;;;;;;;;5037072;28;20067;-79
2021/05/21 07:08:37;;;;;;;13.57;2.50;;;;;;;;;;5019384;28;20549;-80
2021/05/21 07:11:02;;;;;;;25.33;2.90;;;;;;;;;;5012347;28;20346;-79
2021/05/21 07:13:29;;;;;;;20.05;3.10;;;;;;;;;;5014482;28;20025;-79
2021/05/21 07:15:55;;;;;;;63.30;4.13;;;;;;;;;;5086211;28;20110;-80
2021/05/21 07:18:21;;;;;;;85.95;5.07;;;;;;;;;;5055070;28;20045;-80
2021/05/21 07:20:47;;;;;;;28.20;2.40;;;;;;;;;;5034707;28;20020;-79
2021/05/21 07:23:12;;;;;;;21.95;2.17;;;;;;;;;;5011901;28;20096;-79
2021/05/21 07:25:38;;;;;;;103.68;5.30;;;;;;;;;;5056158;28;20026;-80
2021/05/21 07:28:03;;;;;;;42.38;3.80;;;;;;;;;;5011806;28;20022;-80
2021/05/21 07:30:29;;;;;;;67.35;4.60;;;;;;;;;;5010896;28;20050;-80
2021/05/21 07:32:54;;;;;;;19.88;2.55;;;;;;;;;;5011412;28;20014;-79
2021/05/21 07:35:19;;;;;;;22.75;2.92;;;;;;;;;;5018778;28;20060;-79
2021/05/21 07:37:45;;;;;;;50.38;3.75;;;;;;;;;;5039210;28;20030;-79
2021/05/21 07:40:11;;;;;;;78.13;4.30;;;;;;;;;;5016084;28;20010;-80
2021/05/21 07:42:36;;;;;;;100.50;7.20;;;;;;;;;;5009861;28;20426;-80
2021/05/21 07:45:02;;;;;;;73.03;5.25;;;;;;;;;;5020302;28;20030;-79
2021/05/21 07:47:28;;;;;;;114.63;6.45;;;;;;;;;;5049883;28;20020;-79
2021/05/21 07:49:53;;;;;;;109.28;6.32;;;;;;;;;;5011468;28;20014;-79
2021/05/21 07:52:18;;;;;;;88.30;5.95;;;;;;;;;;5022560;28;20033;-79
2021/05/21 07:54:43;;;;;;;69.53;5.50;;;;;;;;;;5024672;28;20641;-79
2021/05/21 07:57:10;;;;;;;52.72;4.22;;;;;;;;;;5010794;28;20022;-79
2021/05/21 07:59:35;;;;;;;29.92;2.67;;;;;;;;;;5028093;28;20028;-79
2021/05/21 08:02:00;;;;;;;30.73;2.92;;;;;;;;;;5011181;28;20109;-79
2021/05/21 08:04:25;;;;;;;61.92;3.42;;;;;;;;;;5014585;28;20018;-80
2021/05/21 08:06:51;;;;;;;24.50;3.22;;;;;;;;;;5036977;28;20526;-79
2021/05/21 08:09:17;;;;;;;180.43;10.27;;;;;;;;;;5050475;28;20087;-79
2021/05/21 08:11:43;;;;;;;58.53;4.50;;;;;;;;;;5078830;28;20018;-79
2021/05/21 08:14:09;;;;;;;200.65;11.50;;;;;;;;;;5026567;28;20480;-79
2021/05/21 08:16:34;;;;;;;75.82;4.70;;;;;;;;;;5048029;28;20029;-79
2021/05/21 08:18:59;;;;;;;38.33;4.50;;;;;;;;;;5026678;28;20011;-80
2021/05/21 08:21:28;;;;;;;39.55;4.45;;;;;;;;;;5063550;28;20021;-80
2021/05/21 08:23:54;;;;;;;13.05;2.00;;;;;;;;;;5033983;28;20096;-79
2021/05/21 08:26:22;;;;;;;35.45;4.13;;;;;;;;;;5009696;28;20026;-79
2021/05/21 08:28:48;;;;;;;83.03;5.30;;;;;;;;;;5080672;28;20115;-79
2021/05/21 08:31:13;;;;;;;43.30;3.42;;;;;;;;;;5068426;28;20448;-79
2021/05/21 08:33:44;;;;;;;24.15;2.90;;;;;;;;;;5012736;28;20021;-79
2021/05/21 08:36:10;;;;;;;14.80;2.17;;;;;;;;;;5009226;28;20030;-79
2021/05/21 08:38:35;;;;;;;98.50;6.65;;;;;;;;;;5014797;28;20022;-78
2021/05/21 08:41:01;;;;;;;41.50;4.55;;;;;;;;;;5031453;28;20029;-80
2021/05/21 08:43:29;;;;;;;28.05;2.80;;;;;;;;;;5025485;28;20361;-79
2021/05/21 08:45:54;;;;;;;39.58;3.15;;;;;;;;;;5008768;28;20040;-79
2021/05/21 08:48:20;;;;;;;28.85;2.75;;;;;;;;;;5010232;28;20025;-78
2021/05/21 08:50:49;;;;;;;29.17;2.50;;;;;;;;;;5055441;28;20054;-79
2021/05/21 08:53:14;;;;;;;24.50;3.25;;;;;;;;;;4997093;28;20465;-79
2021/05/21 08:55:39;;;;;;;19.98;3.42;;;;;;;;;;5045437;27;20037;-79
2021/05/21 08:58:09;;;;;;;30.60;3.50;;;;;;;;;;5017383;28;20114;-79
2021/05/21 09:00:34;;;;;;;27.30;3.78;;;;;;;;;;5050380;28;20423;-79
2021/05/21 09:03:18;;;;;;;36.75;3.83;;;;;;;;;;5027135;28;20105;-79
2021/05/21 09:05:59;;;;;;;48.17;4.35;;;;;;;;;;5010275;28;20470;-79
2021/05/21 09:08:34;;;;;;;35.65;3.40;;;;;;;;;;5034824;28;20027;-79
2021/05/21 09:10:59;;;;;;;51.30;3.97;;;;;;;;;;5018497;28;20477;-79
2021/05/21 09:13:32;;;;;;;75.28;5.80;;;;;;;;;;5017420;28;20025;-79
2021/05/21 09:15:58;;;;;;;33.83;4.00;;;;;;;;;;5094647;28;20036;-79
2021/05/21 09:18:23;;;;;;;38.10;3.47;;;;;;;;;;5043791;28;20508;-78
2021/05/21 09:20:51;;;;;;;43.20;4.18;;;;;;;;;;5012003;28;20010;-79
2021/05/21 09:23:17;;;;;;;64.85;4.95;;;;;;;;;;5015489;28;20018;-79
2021/05/21 09:25:47;;;;;;;101.18;6.82;;;;;;;;;;5009675;28;20523;-79
2021/05/21 09:28:31;;;;;;;52.05;3.95;;;;;;;;;;5010241;28;20029;-79
2021/05/21 09:31:19;;;;;;;47.45;4.18;;;;;;;;;;5009676;28;20075;-78
2021/05/21 09:33:46;;;;;;;47.05;3.65;;;;;;;;;;5012208;28;20665;-79
2021/05/21 09:36:12;;;;;;;31.98;2.90;;;;;;;;;;5031594;28;20044;-79
2021/05/21 09:38:47;;;;;;;56.33;4.90;;;;;;;;;;5050626;28;20469;-79
2021/05/21 09:41:13;;;;;;;85.00;5.18;;;;;;;;;;5009726;28;20097;-79
2021/05/21 09:43:38;;;;;;;77.13;6.30;;;;;;;;;;5016557;28;20117;-79
2021/05/21 09:46:10;;;;;;;85.75;5.65;;;;;;;;;;5008462;28;20018;-79
2021/05/21 09:48:35;;;;;;;32.90;2.50;;;;;;;;;;5010072;28;20122;-79
2021/05/21 09:51:01;;;;;;;23.17;2.30;;;;;;;;;;5035004;28;20095;-79
2021/05/21 09:53:26;;;;;;;42.13;4.05;;;;;;;;;;5071427;28;20026;-79
2021/05/21 09:55:52;;;;;;;30.00;3.50;;;;;;;;;;5032427;28;20389;-79
2021/05/21 09:58:25;;;;;;;79.97;4.35;;;;;;;;;;5042594;28;20030;-80
2021/05/21 10:01:03;;;;;;;26.02;2.17;;;;;;;;;;5049899;28;20026;-79
2021/05/21 10:03:28;;;;;;;87.53;5.90;;;;;;;;;;5078223;28;20021;-79
2021/05/21 10:05:54;;;;;;;136.50;6.53;;;;;;;;;;5109550;27;20080;-79
2021/05/21 10:08:22;;;;;;;120.47;9.27;;;;;;;;;;5096937;28;20463;-79
2021/05/21 10:10:47;;;;;;;79.70;5.15;;;;;;;;;;5059329;28;20025;-79
2021/05/21 10:13:12;;;;;;;38.45;3.90;;;;;;;;;;5016170;28;20055;-79
2021/05/21 10:15:37;;;;;;;121.95;7.32;;;;;;;;;;5072468;28;20030;-80
2021/05/21 10:18:03;;;;;;;249.93;14.10;;;;;;;;;;5021821;28;20036;-79
2021/05/21 10:20:28;;;;;;;175.20;8.88;;;;;;;;;;5047165;28;20074;-80
2021/05/21 10:22:53;;;;;;;87.70;5.13;;;;;;;;;;5102911;28;20052;-80
2021/05/21 10:25:23;;;;;;;81.13;5.45;;;;;;;;;;5069006;28;20506;-79
2021/05/21 10:27:50;;;;;;;36.65;2.20;;;;;;;;;;5013228;28;20100;-79
2021/05/21 10:30:16;;;;;;;155.75;8.73;;;;;;;;;;5036918;28;20029;-79
2021/05/21 10:32:41;;;;;;;50.80;4.05;;;;;;;;;;5019414;28;20026;-80
2021/05/21 10:35:20;;;;;;;64.85;4.97;;;;;;;;;;5029654;28;20081;-79
2021/05/21 10:37:47;;;;;;;122.57;5.57;;;;;;;;;;5029701;28;20665;-79
2021/05/21 10:40:13;;;;;;;92.00;5.65;;;;;;;;;;5067114;28;20010;-79
2021/05/21 10:42:48;;;;;;;140.38;6.38;;;;;;;;;;5012254;28;20022;-79
2021/05/21 10:45:18;;;;;;;106.72;7.00;;;;;;;;;;5018251;28;20029;-79
2021/05/21 10:47:45;;;;;;;197.45;10.15;;;;;;;;;;5023440;28;20026;-79
2021/05/21 10:50:18;;;;;;;63.75;4.20;;;;;;;;;;5068276;28;20457;-79
2021/05/21 10:52:57;;;;;;;43.40;3.05;;;;;;;;;;5015992;28;20451;-79
2021/05/21 10:55:37;;;;;;;63.72;4.18;;;;;;;;;;5064353;28;20029;-79
2021/05/21 10:58:02;;;;;;;41.22;3.60;;;;;;;;;;5010090;28;20025;-79
2021/05/21 11:00:27;;;;;;;38.30;2.63;;;;;;;;;;5034615;28;20466;-80
2021/05/21 11:02:54;;;;;;;225.90;11.63;;;;;;;;;;5034184;28;20481;-79
2021/05/21 11:05:27;;;;;;;221.45;9.25;;;;;;;;;;5018328;28;20079;-80
2021/05/21 11:07:53;;;;;;;63.13;3.58;;;;;;;;;;5010906;28;20056;-80
2021/05/21 11:10:26;;;;;;;20.15;1.80;;;;;;;;;;5059463;28;20025;-80
2021/05/21 11:12:52;;;;;;;112.03;6.10;;;;;;;;;;5007492;28;20025;-79
2021/05/21 11:15:36;;;;;;;36.90;2.75;;;;;;;;;;5013839;28;20057;-79
2021/05/21 11:18:19;;;;;;;58.33;4.13;;;;;;;;;;5028779;28;20028;-79
2021/05/21 11:20:50;;;;;;;17.20;1.90;;;;;;;;;;5011501;28;20164;-79
2021/05/21 11:23:15;;;;;;;13.98;2.03;;;;;;;;;;5015035;28;20018;-79
2021/05/21 11:25:59;;;;;;;21.58;2.35;;;;;;;;;;5020991;28;20074;-80
2021/05/21 11:28:24;;;;;;;23.15;3.13;;;;;;;;;;5027047;28;20040;-80
2021/05/21 11:30:52;;;;;;;38.67;3.05;;;;;;;;;;5050532;28;20029;-80
2021/05/21 11:33:19;;;;;;;37.28;3.28;;;;;;;;;;5050187;28;20031;-80
2021/05/21 11:35:44;;;;;;;56.25;3.83;;;;;;;;;;5014890;28;20034;-80
2021/05/21 11:38:09;;;;;;;38.97;2.42;;;;;;;;;;5010405;28;20405;-79
2021/05/21 11:40:35;;;;;;;227.98;12.23;;;;;;;;;;5012497;28;20086;-79
2021/05/21 11:43:01;;;;;;;124.20;6.90;;;;;;;;;;5008989;28;20764;-80
2021/05/21 11:45:27;;;;;;;69.00;4.55;;;;;;;;;;5022693;28;20092;-80
2021/05/21 11:47:54;;;;;;;63.65;3.97;;;;;;;;;;5009384;28;20026;-78
2021/05/21 11:50:26;;;;;;;46.03;3.17;;;;;;;;;;5019210;28;20027;-78
2021/05/21 11:52:51;;;;;;;22.65;1.88;;;;;;;;;;5038210;28;20029;-78
2021/05/21 11:55:19;;;;;;;84.90;5.30;;;;;;;;;;5015018;28;20083;-78
2021/05/21 11:57:48;;;;;;;34.88;2.33;;;;;;;;;;5003537;28;20028;-78
2021/05/21 12:00:13;;;;;;;49.72;3.72;;;;;;;;;;5021904;28;20133;-78
2021/05/21 12:02:38;;;;;;;29.08;2.80;;;;;;;;;;5018659;28;20488;-78
2021/05/21 12:05:05;;;;;;;204.60;10.15;;;;;;;;;;5010998;28;20527;-78
2021/05/21 12:07:30;;;;;;;193.20;10.88;;;;;;;;;;5050286;28;20124;-77
2021/05/21 12:10:00;;;;;;;123.82;6.95;;;;;;;;;;5018877;28;20113;-78
2021/05/21 12:12:26;;;;;;;104.47;5.93;;;;;;;;;;5030490;28;20027;-78
2021/05/21 12:14:51;;;;;;;94.97;6.75;;;;;;;;;;5096067;28;20062;-78
2021/05/21 12:17:16;;;;;;;54.10;3.03;;;;;;;;;;5019453;28;20018;-78
2021/05/21 12:19:42;;;;;;;92.47;6.22;;;;;;;;;;5045365;28;20033;-78
2021/05/21 12:22:08;;;;;;;164.25;10.07;;;;;;;;;;5022312;28;20021;-78
2021/05/21 12:24:37;;;;;;;91.47;5.10;;;;;;;;;;5046800;28;20021;-78
2021/05/21 12:27:03;;;;;;;89.38;5.10;;;;;;;;;;5038472;28;20132;-78
2021/05/21 12:29:28;;;;;;;45.72;2.78;;;;;;;;;;5012030;28;20049;-78
2021/05/21 12:31:55;;;;;;;129.45;8.15;;;;;;;;;;5016606;28;20037;-78
2021/05/21 12:34:21;;;;;;;27.98;2.78;;;;;;;;;;5057316;28;20023;-79
2021/05/21 12:37:03;;;;;;;38.38;2.97;;;;;;;;;;5065640;28;20038;-78
2021/05/21 12:39:30;;;;;;;84.22;4.57;;;;;;;;;;5011330;28;20026;-78
2021/05/21 12:41:55;;;;;;;84.78;4.72;;;;;;;;;;5040839;28;20036;-78
2021/05/21 12:44:20;;;;;;;225.07;12.68;;;;;;;;;;5043786;28;20021;-78
2021/05/21 12:46:46;;;;;;;294.08;13.40;;;;;;;;;;5026553;28;20021;-78
2021/05/21 12:49:11;;;;;;;96.90;4.95;;;;;;;;;;5093503;28;20023;-78
2021/05/21 12:51:37;;;;;;;194.10;9.75;;;;;;;;;;5059787;28;20491;-78
2021/05/21 12:54:20;;;;;;;62.92;4.22;;;;;;;;;;5017280;28;20018;-78
2021/05/21 12:56:53;;;;;;;101.28;6.53;;;;;;;;;;4998493;28;20034;-78
2021/05/21 12:59:18;;;;;;;162.02;8.38;;;;;;;;;;5063665;28;20051;-78
2021/05/21 13:01:43;;;;;;;69.47;4.75;;;;;;;;;;5038449;28;20104;-78
2021/05/21 13:04:17;;;;;;;97.75;5.95;;;;;;;;;;5038397;28;20021;-78
2021/05/21 13:06:43;;;;;;;265.63;13.77;;;;;;;;;;5009193;28;20358;-78
2021/05/21 13:09:11;;;;;;;323.33;16.40;;;;;;;;;;5017639;28;20101;-78
2021/05/21 13:11:51;;;;;;;183.02;9.77;;;;;;;;;;5018395;28;20022;-78
2021/05/21 13:14:16;;;;;;;285.58;13.70;;;;;;;;;;5001782;28;20105;-78
2021/05/21 13:16:43;;;;;;;260.98;13.32;;;;;;;;;;5024293;28;20116;-78
2021/05/21 13:19:08;;;;;;;119.93;5.38;;;;;;;;;;5024839;28;20029;-78
2021/05/21 13:21:34;;;;;;;120.60;7.78;;;;;;;;;;5023618;28;20022;-78
2021/05/21 13:24:07;;;;;;;268.83;12.80;;;;;;;;;;5014570;28;20052;-78
2021/05/21 13:26:46;;;;;;;186.07;8.75;;;;;;;;;;5020331;28;20030;-78
2021/05/21 13:29:11;;;;;;;290.05;13.35;;;;;;;;;;5011192;28;20024;-78
2021/05/21 13:31:36;;;;;;;123.63;6.47;;;;;;;;;;5012366;28;20489;-78
2021/05/21 13:34:02;;;;;;;354.17;18.90;;;;;;;;;;5013284;28;20022;-78
2021/05/21 13:36:27;;;;;;;370.38;17.65;;;;;;;;;;5013689;28;20018;-78
2021/05/21 13:38:52;;;;;;;157.90;9.95;;;;;;;;;;5013400;28;20046;-78
2021/05/21 13:41:17;;;;;;;32.67;2.80;;;;;;;;;;5016371;28;20018;-78
2021/05/21 13:43:43;;;;;;;94.35;4.15;;;;;;;;;;5026502;28;20029;-78
2021/05/21 13:46:08;;;;;;;73.50;3.83;;;;;;;;;;5059245;28;20448;-78
2021/05/21 13:48:33;;;;;;;211.63;8.98;;;;;;;;;;5020380;28;20064;-78
2021/05/21 13:50:58;;;;;;;52.65;3.67;;;;;;;;;;5019690;28;20210;-78
2021/05/21 13:53:24;;;;;;;80.88;6.68;;;;;;;;;;5015035;28;20050;-78
2021/05/21 13:55:49;;;;;;;256.20;13.50;;;;;;;;;;5025726;28;20047;-78
2021/05/21 13:58:15;;;;;;;139.55;7.90;;;;;;;;;;5017000;28;20053;-78
2021/05/21 14:00:40;;;;;;;177.98;9.43;;;;;;;;;;5055852;28;20427;-78
2021/05/21 14:03:05;;;;;;;20.50;2.00;;;;;;;;;;5028762;28;20082;-78
2021/05/21 14:05:30;;;;;;;105.85;6.18;;;;;;;;;;5028140;28;20388;-78
2021/05/21 14:07:55;;;;;;;368.63;18.23;;;;;;;;;;5026174;28;20017;-78
2021/05/21 14:10:20;;;;;;;55.78;2.60;;;;;;;;;;5012985;28;20143;-78
2021/05/21 14:12:46;;;;;;;234.00;11.20;;;;;;;;;;5017164;28;20097;-78
2021/05/21 14:15:12;;;;;;;87.57;5.97;;;;;;;;;;5064758;28;20023;-78
2021/05/21 14:17:37;;;;;;;78.53;3.70;;;;;;;;;;5032367;28;20101;-78
2021/05/21 14:20:02;;;;;;;241.50;13.25;;;;;;;;;;5089482;28;20014;-78
2021/05/21 14:22:28;;;;;;;383.65;21.10;;;;;;;;;;5046504;28;20113;-78
2021/05/21 14:24:53;;;;;;;244.02;13.38;;;;;;;;;;5020042;28;20025;-78
2021/05/21 14:27:19;;;;;;;234.45;10.85;;;;;;;;;;5026111;28;20021;-78
2021/05/21 14:29:45;;;;;;;76.28;4.38;;;;;;;;;;5043383;28;20023;-78